地図

経路データ

SID SEASON NUMBER BASIN SUBBASIN NAME ISO_TIME NATURE LAT LON WMO_WIND WMO_PRES WMO_AGENCY TRACK_TYPE DIST2LAND LANDFALL IFLAG USA_AGENCY USA_ATCF_ID USA_LAT USA_LON USA_RECORD USA_STATUS USA_WIND USA_PRES USA_SSHS USA_R34_NE USA_R34_SE USA_R34_SW USA_R34_NW USA_R50_NE USA_R50_SE USA_R50_SW USA_R50_NW USA_R64_NE USA_R64_SE USA_R64_SW USA_R64_NW USA_POCI USA_ROCI USA_RMW USA_EYE TOKYO_LAT TOKYO_LON TOKYO_GRADE TOKYO_WIND TOKYO_PRES TOKYO_R50_DIR TOKYO_R50_LONG TOKYO_R50_SHORT TOKYO_R30_DIR TOKYO_R30_LONG TOKYO_R30_SHORT TOKYO_LAND CMA_LAT CMA_LON CMA_CAT CMA_WIND CMA_PRES HKO_LAT HKO_LON HKO_CAT HKO_WIND HKO_PRES NEWDELHI_LAT NEWDELHI_LON NEWDELHI_GRADE NEWDELHI_WIND NEWDELHI_PRES NEWDELHI_CI NEWDELHI_DP NEWDELHI_POCI REUNION_LAT REUNION_LON REUNION_TYPE REUNION_WIND REUNION_PRES REUNION_TNUM REUNION_CI REUNION_RMW REUNION_R34_NE REUNION_R34_SE REUNION_R34_SW REUNION_R34_NW REUNION_R50_NE REUNION_R50_SE REUNION_R50_SW REUNION_R50_NW REUNION_R64_NE REUNION_R64_SE REUNION_R64_SW REUNION_R64_NW BOM_LAT BOM_LON BOM_TYPE BOM_WIND BOM_PRES BOM_TNUM BOM_CI BOM_RMW BOM_R34_NE BOM_R34_SE BOM_R34_SW BOM_R34_NW BOM_R50_NE BOM_R50_SE BOM_R50_SW BOM_R50_NW BOM_R64_NE BOM_R64_SE BOM_R64_SW BOM_R64_NW BOM_ROCI BOM_POCI BOM_EYE BOM_POS_METHOD BOM_PRES_METHOD NADI_LAT NADI_LON NADI_CAT NADI_WIND NADI_PRES WELLINGTON_LAT WELLINGTON_LON WELLINGTON_WIND WELLINGTON_PRES DS824_LAT DS824_LON DS824_STAGE DS824_WIND DS824_PRES TD9636_LAT TD9636_LON TD9636_STAGE TD9636_WIND TD9636_PRES TD9635_LAT TD9635_LON TD9635_WIND TD9635_PRES TD9635_ROCI NEUMANN_LAT NEUMANN_LON NEUMANN_CLASS NEUMANN_WIND NEUMANN_PRES MLC_LAT MLC_LON MLC_CLASS MLC_WIND MLC_PRES USA_GUST BOM_GUST BOM_GUST_PER REUNION_GUST REUNION_GUST_PER USA_SEAHGT USA_SEARAD_NE USA_SEARAD_SE USA_SEARAD_SW USA_SEARAD_NW STORM_SPEED STORM_DIR
1947036S19066 1947 15 SI MM NOT_NAMED 1947-02-05 06:00:00 NR -19.4000 65.5000 reunion main 811 811 _____O________ -1 -19.4000 65.5000 99 9.90000 1 243
1947036S19066 1947 15 SI MM NOT_NAMED 1947-02-05 09:00:00 NR -19.4177 65.4652 main 811 790 _____P________ -1 -19.4177 65.4652 99 2 264
1947036S19066 1947 15 SI MM NOT_NAMED 1947-02-05 12:00:00 TS -19.4181 65.3133 main 790 778 O____P___OO___ jtwc_sh SH141947 -19.4000 65.2000 -1 -19.4361 65.4265 99 -19.4000 65.2000 TC -19.4000 65.2000 2 2 261
1947036S19066 1947 15 SI MM NOT_NAMED 1947-02-05 15:00:00 TS -19.4524 65.2444 main 778 778 P____P___PP___ SH141947 -19.4500 65.1550 -1 -19.4559 65.3803 99 -19.4500 65.1550 TC -19.4500 65.1516 2 2 242
1947036S19066 1947 15 SI MM NOT_NAMED 1947-02-05 18:00:00 TS -19.4932 65.1667 main 778 768 O____P___OP___ jtwc_sh SH141947 -19.5000 65.1000 -1 -19.4778 65.3225 99 -19.5000 65.1000 TC -19.5000 65.0925 2 2 242
1947036S19066 1947 15 SI MM NOT_NAMED 1947-02-05 21:00:00 TS -19.5381 65.0766 main 768 756 P____P___PP___ SH141947 -19.5500 65.0225 -1 -19.5025 65.2494 99 -19.5500 65.0225 TC -19.5500 65.0122 2 2 245
1947036S19066 1947 15 SI MM NOT_NAMED 1947-02-06 00:00:00 TS -19.5827 64.9643 main 756 735 O____P___OO___ jtwc_sh SH141947 -19.6000 64.9000 -1 -19.5306 65.1572 99 -19.6000 64.9000 TC 35 -19.6000 64.9000 2 3 251
1947036S19066 1947 15 SI MM NOT_NAMED 1947-02-06 03:00:00 TS -19.6282 64.8050 main 735 713 P____P___PP___ SH141947 -19.6500 64.7150 -1 -19.5629 65.0420 99 -19.6500 64.7150 TC 35 -19.6500 64.7481 2 3 254
1947036S19066 1947 15 SI MM NOT_NAMED 1947-02-06 06:00:00 TS -19.6750 64.6150 reunion main 713 692 O____O___OP___ jtwc_sh SH141947 -19.7000 64.5000 -1 -19.6000 64.9000 99 9.90000 -19.7000 64.5000 TC 35 -19.6999 64.5600 2 4 255
1947036S19066 1947 15 SI MM NOT_NAMED 1947-02-06 09:00:00 TS -19.7230 64.4175 main 692 670 P____P___PP___ SH141947 -19.7500 64.3000 -1 -19.6422 64.7280 99 -19.7500 64.3000 TC 35 -19.7499 64.3418 2 4 256
1947036S19066 1947 15 SI MM NOT_NAMED 1947-02-06 12:00:00 TS -19.7722 64.2064 main 670 649 O____P___OO___ jtwc_sh SH141947 -19.8000 64.1000 -1 -19.6888 64.5258 99 -19.8000 64.1000 TC 35 -19.8000 64.1000 2 4 256
1947036S19066 1947 15 SI MM NOT_NAMED 1947-02-06 15:00:00 TS -19.8220 64.0044 main 649 628 P____P___PP___ SH141947 -19.8499 63.9225 -1 -19.7387 64.2937 99 -19.8499 63.9225 TC 35 -19.8496 63.8789 2 4 256
1947036S19066 1947 15 SI MM NOT_NAMED 1947-02-06 18:00:00 TS -19.8725 63.7661 main 628 596 O____P___OP___ jtwc_sh SH141947 -19.9000 63.7000 -1 -19.7908 64.0322 99 -19.9000 63.7000 TC 35 -19.8993 63.6323 2 5 259
1947036S19066 1947 15 SI MM NOT_NAMED 1947-02-06 21:00:00 TS -19.9234 63.4653 main 596 554 P____P___PP___ SH141947 -19.9499 63.3875 -1 -19.8441 63.7417 99 -19.9499 63.3875 TC 35 -19.9494 63.3445 2 6 261
1947036S19066 1947 15 SI MM NOT_NAMED 1947-02-07 00:00:00 TS -19.9744 63.1056 main 554 512 O____P___OO___ jtwc_sh SH141947 -20.0000 63.0000 -1 -19.8975 63.4225 99 -20.0000 63.0000 TC 35 -20.0000 63.0000 2 7 262
1947036S19066 1947 15 SI MM NOT_NAMED 1947-02-07 03:00:00 TS -20.0250 62.7006 main 512 470 P____P___PP___ SH141947 -20.0499 62.5725 -1 -19.9498 63.0752 99 -20.0499 62.5725 TC 35 -20.0502 62.5825 2 8 263
1947036S19066 1947 15 SI MM NOT_NAMED 1947-02-07 06:00:00 TS -20.0751 62.2525 reunion main 470 417 O____O___OP___ jtwc_sh SH141947 -20.1000 62.1000 -1 -20.0000 62.7000 99 9.90000 -20.1000 62.1000 TC 35 -20.1003 62.1099 2 9 264
1947036S19066 1947 15 SI MM NOT_NAMED 1947-02-07 09:00:00 TS -20.1119 61.7725 main 417 365 P____P___PP___ SH141947 -20.1500 61.6000 -1 -19.9976 62.2825 99 -20.1500 61.6000 TC 35 -20.1502 61.6074 2 9 265
1947036S19066 1947 15 SI MM NOT_NAMED 1947-02-07 12:00:00 TS -20.1468 61.2826 main 365 313 O____P___OO___ jtwc_sh SH141947 -20.2000 61.1000 -1 -19.9873 61.8306 99 -20.2000 61.1000 TC 35 -20.2000 61.1000 2 9 266
1947036S19066 1947 15 SI MM NOT_NAMED 1947-02-07 15:00:00 TS -20.1769 60.8209 main 313 271 P____P___PP___ SH141947 -20.2498 60.6500 -1 -19.9786 61.3552 99 -20.2498 60.6500 TC 35 -20.2292 60.6285 2 9 266
1947036S19066 1947 15 SI MM NOT_NAMED 1947-02-07 18:00:00 TS -20.2108 60.3559 main 271 219 O____P___OP___ jtwc_sh SH141947 -20.3000 60.2000 -1 -19.9812 60.8671 99 -20.3000 60.2000 TC 35 -20.2619 60.1566 2 9 265
1947036S19066 1947 15 SI MM NOT_NAMED 1947-02-07 21:00:00 TS -20.2508 59.8683 main 218 166 P____P___PP___ SH141947 -20.3424 59.7074 -1 -20.0048 60.3770 99 -20.3424 59.7074 TC 35 -20.3136 59.6815 2 9 264
1947036S19066 1947 15 SI MM NOT_NAMED 1947-02-08 00:00:00 TS -20.3148 59.3739 main 166 115 O____P___OO___ jtwc_sh SH141947 -20.4000 59.2000 -1 -20.0591 59.8955 99 -20.4000 59.2000 TC 35 -20.4000 59.2000 2 9 261
1947036S19066 1947 15 SI MM NOT_NAMED 1947-02-08 03:00:00 TS -20.3952 58.8707 main 115 66 P____P___PP___ SH141947 -20.4699 58.6998 -1 -20.1542 59.4331 99 -20.4699 58.6998 TC 35 -20.4869 58.6503 2 10 257
1947036S19066 1947 15 SI MM NOT_NAMED 1947-02-08 06:00:00 TS -20.5290 58.3756 reunion main 66 30 O____O___OP___ jtwc_sh SH141947 -20.6000 58.2000 -1 -20.3000 59.0000 99 9.90000 -20.6000 58.2000 TC 35 -20.6160 58.1026 2 10 250
1947036S19066 1947 15 SI MM NOT_NAMED 1947-02-08 09:00:00 TS -20.7307 57.8770 main 30 30 P____P___PP___ SH141947 -20.8051 57.6701 -1 -20.5008 58.5644 99 -20.8051 57.6701 TC 35 -20.8120 57.6035 2 10 241
1947036S19066 1947 15 SI MM NOT_NAMED 1947-02-08 12:00:00 TS -21.0124 57.4363 main 55 55 O____P___OO___ jtwc_sh SH141947 -21.1000 57.2000 -1 -20.7495 58.1451 99 -21.1000 57.2000 TC 35 -21.1000 57.2000 2 10 230
1947036S19066 1947 15 SI MM NOT_NAMED 1947-02-08 15:00:00 TS -21.3582 57.0817 main 102 102 P____P___PP___ SH141947 -21.4474 56.8251 -1 -21.0415 57.7515 99 -21.4474 56.8251 TC 35 -21.4965 56.9252 2 9 215
1947036S19066 1947 15 SI MM NOT_NAMED 1947-02-08 18:00:00 TS -21.7565 56.8802 main 126 123 O____P___OP___ jtwc_sh SH141947 -21.9000 56.6000 -1 -21.3725 57.3928 99 -21.9000 56.6000 TC 35 -21.9817 56.7573 2 9 198
1947036S19066 1947 15 SI MM NOT_NAMED 1947-02-08 21:00:00 TS -22.1875 56.7834 main 144 144 P____P___PP___ SH141947 -22.4675 56.5496 -1 -21.7381 57.0785 99 -22.4675 56.5496 TC 35 -22.5260 56.6608 2 8 190
1947036S19066 1947 15 SI MM NOT_NAMED 1947-02-09 00:00:00 TS -22.5480 56.7247 main 163 157 O____P___OO___ jtwc_sh SH141947 -23.1000 56.6000 -1 -22.1341 56.8183 99 -23.1000 56.6000 TC 35 -23.1000 56.6000 2 4 202
1947036S19066 1947 15 SI MM NOT_NAMED 1947-02-09 03:00:00 NR -22.5561 56.6221 main 167 167 _____P________ SH141947 -1 -22.5561 56.6221 99 TC 2 5 205
1947036S19066 1947 15 SI MM NOT_NAMED 1947-02-09 06:00:00 NR -23.0000 56.5000 reunion main 201 201 _____O________ -1 -23.0000 56.5000 99 9.90000 2 9 189
1947036S19066 1947 15 SI MM NOT_NAMED 1947-02-09 09:00:00 NR -23.4618 56.4590 main 252 252 _____P________ -1 -23.4618 56.4590 99 2 9 0
1947036S19066 1947 15 SI MM NOT_NAMED 1947-02-09 12:00:00 NR -23.9392 56.4927 main 294 294 _____P________ -1 -23.9392 56.4927 99 10 173
1947036S19066 1947 15 SI MM NOT_NAMED 1947-02-09 15:00:00 NR -24.4298 56.5911 main 350 350 _____P________ -1 -24.4298 56.5911 99 10 167
1947036S19066 1947 15 SI MM NOT_NAMED 1947-02-09 18:00:00 NR -24.9313 56.7444 main 407 407 _____P________ -1 -24.9313 56.7444 99 11 162
1947036S19066 1947 15 SI MM NOT_NAMED 1947-02-09 21:00:00 NR -25.4415 56.9422 main 466 466 _____P________ -1 -25.4415 56.9422 99 11 159
1947036S19066 1947 15 SI MM NOT_NAMED 1947-02-10 00:00:00 NR -25.9580 57.1745 main 539 539 _____P________ -1 -25.9580 57.1745 99 11 157
1947036S19066 1947 15 SI MM NOT_NAMED 1947-02-10 03:00:00 NR -26.4782 57.4306 main 598 598 _____P________ -1 -26.4782 57.4306 99 11 156
1947036S19066 1947 15 SI MM NOT_NAMED 1947-02-10 06:00:00 NR -27.0000 57.7000 reunion main 660 _____O________ -1 -27.0000 57.7000 99 9.90000 12 155

IBTrACS Databaseについて

本データベースは、米国NOAAが公開する1842年以降の世界の熱帯低気圧のベストトラックデータアーカイブInternational Best Track Archive for Climate Stewardship (IBTrACS)を、ウェブで閲覧しやすい形式に変換したものです。

最終更新日:2021-12-03